sensor_id;sensor_type;location;lat;lon;timestamp;P1;durP1;ratioP1;P2;durP2;ratioP2
58302;SDS011;44109;52.398;7.024;2022-11-20T00:01:03;30.10;;;17.80;;
58302;SDS011;44109;52.398;7.024;2022-11-20T00:03:32;28.27;;;17.20;;
58302;SDS011;44109;52.398;7.024;2022-11-20T00:06:00;32.70;;;18.27;;
58302;SDS011;44109;52.398;7.024;2022-11-20T00:08:28;26.25;;;16.45;;
58302;SDS011;44109;52.398;7.024;2022-11-20T00:10:57;25.65;;;15.10;;
58302;SDS011;44109;52.398;7.024;2022-11-20T00:13:24;25.80;;;15.55;;
58302;SDS011;44109;52.398;7.024;2022-11-20T00:15:56;26.52;;;15.70;;
58302;SDS011;44109;52.398;7.024;2022-11-20T00:18:25;28.60;;;15.93;;
58302;SDS011;44109;52.398;7.024;2022-11-20T00:20:53;26.10;;;14.38;;
58302;SDS011;44109;52.398;7.024;2022-11-20T00:23:26;26.08;;;14.75;;
58302;SDS011;44109;52.398;7.024;2022-11-20T00:25:54;29.65;;;17.80;;
58302;SDS011;44109;52.398;7.024;2022-11-20T00:28:23;24.55;;;14.90;;
58302;SDS011;44109;52.398;7.024;2022-11-20T00:30:50;26.77;;;15.88;;
58302;SDS011;44109;52.398;7.024;2022-11-20T00:33:18;25.55;;;13.43;;
58302;SDS011;44109;52.398;7.024;2022-11-20T00:35:45;20.95;;;13.60;;
58302;SDS011;44109;52.398;7.024;2022-11-20T00:38:13;22.85;;;13.23;;
58302;SDS011;44109;52.398;7.024;2022-11-20T00:40:40;24.48;;;13.93;;
58302;SDS011;44109;52.398;7.024;2022-11-20T00:43:08;23.33;;;13.95;;
58302;SDS011;44109;52.398;7.024;2022-11-20T00:45:37;23.38;;;13.82;;
58302;SDS011;44109;52.398;7.024;2022-11-20T00:48:06;24.35;;;15.57;;
58302;SDS011;44109;52.398;7.024;2022-11-20T00:50:33;26.25;;;15.45;;
58302;SDS011;44109;52.398;7.024;2022-11-20T00:53:01;26.08;;;13.57;;
58302;SDS011;44109;52.398;7.024;2022-11-20T00:55:28;22.38;;;13.60;;
58302;SDS011;44109;52.398;7.024;2022-11-20T00:57:56;24.17;;;13.90;;
58302;SDS011;44109;52.398;7.024;2022-11-20T01:00:23;23.98;;;13.77;;
58302;SDS011;44109;52.398;7.024;2022-11-20T01:02:52;28.70;;;15.48;;
58302;SDS011;44109;52.398;7.024;2022-11-20T01:05:22;27.50;;;14.30;;
58302;SDS011;44109;52.398;7.024;2022-11-20T01:07:50;32.58;;;16.70;;
58302;SDS011;44109;52.398;7.024;2022-11-20T01:10:17;28.17;;;15.43;;
58302;SDS011;44109;52.398;7.024;2022-11-20T01:12:45;35.50;;;17.75;;
58302;SDS011;44109;52.398;7.024;2022-11-20T01:15:33;31.58;;;16.95;;
58302;SDS011;44109;52.398;7.024;2022-11-20T01:18:03;29.75;;;16.02;;
58302;SDS011;44109;52.398;7.024;2022-11-20T01:20:33;31.73;;;18.13;;
58302;SDS011;44109;52.398;7.024;2022-11-20T01:23:01;29.42;;;15.88;;
58302;SDS011;44109;52.398;7.024;2022-11-20T01:25:29;34.40;;;16.73;;
58302;SDS011;44109;52.398;7.024;2022-11-20T01:27:57;31.60;;;16.98;;
58302;SDS011;44109;52.398;7.024;2022-11-20T01:30:24;34.15;;;17.98;;
58302;SDS011;44109;52.398;7.024;2022-11-20T01:32:52;28.27;;;15.73;;
58302;SDS011;44109;52.398;7.024;2022-11-20T01:35:21;29.17;;;15.80;;
58302;SDS011;44109;52.398;7.024;2022-11-20T01:37:49;31.10;;;17.55;;
58302;SDS011;44109;52.398;7.024;2022-11-20T01:40:17;29.30;;;16.20;;
58302;SDS011;44109;52.398;7.024;2022-11-20T01:42:46;30.38;;;17.27;;
58302;SDS011;44109;52.398;7.024;2022-11-20T01:45:52;29.85;;;15.88;;
58302;SDS011;44109;52.398;7.024;2022-11-20T01:48:35;29.05;;;15.85;;
58302;SDS011;44109;52.398;7.024;2022-11-20T01:51:12;30.15;;;17.00;;
58302;SDS011;44109;52.398;7.024;2022-11-20T01:53:49;29.50;;;14.93;;
58302;SDS011;44109;52.398;7.024;2022-11-20T01:56:21;29.00;;;16.45;;
58302;SDS011;44109;52.398;7.024;2022-11-20T01:58:51;28.20;;;15.38;;
58302;SDS011;44109;52.398;7.024;2022-11-20T02:01:25;28.80;;;16.20;;
58302;SDS011;44109;52.398;7.024;2022-11-20T02:03:52;29.90;;;17.05;;
58302;SDS011;44109;52.398;7.024;2022-11-20T02:06:24;31.15;;;16.63;;
58302;SDS011;44109;52.398;7.024;2022-11-20T02:08:55;28.13;;;15.68;;
58302;SDS011;44109;52.398;7.024;2022-11-20T02:11:23;26.63;;;15.10;;
58302;SDS011;44109;52.398;7.024;2022-11-20T02:13:51;25.23;;;14.48;;
58302;SDS011;44109;52.398;7.024;2022-11-20T02:16:21;26.35;;;15.63;;
58302;SDS011;44109;52.398;7.024;2022-11-20T02:18:53;25.95;;;14.02;;
58302;SDS011;44109;52.398;7.024;2022-11-20T02:21:27;33.92;;;16.13;;
58302;SDS011;44109;52.398;7.024;2022-11-20T02:24:11;26.50;;;15.00;;
58302;SDS011;44109;52.398;7.024;2022-11-20T02:26:44;27.00;;;15.32;;
58302;SDS011;44109;52.398;7.024;2022-11-20T02:29:19;27.88;;;16.80;;
58302;SDS011;44109;52.398;7.024;2022-11-20T02:31:53;28.90;;;15.80;;
58302;SDS011;44109;52.398;7.024;2022-11-20T02:34:25;27.40;;;14.70;;
58302;SDS011;44109;52.398;7.024;2022-11-20T02:36:53;28.38;;;15.40;;
58302;SDS011;44109;52.398;7.024;2022-11-20T02:39:22;25.63;;;13.60;;
58302;SDS011;44109;52.398;7.024;2022-11-20T02:41:53;27.40;;;16.02;;
58302;SDS011;44109;52.398;7.024;2022-11-20T02:44:23;27.45;;;14.85;;
58302;SDS011;44109;52.398;7.024;2022-11-20T02:46:51;26.35;;;16.48;;
58302;SDS011;44109;52.398;7.024;2022-11-20T02:49:18;24.10;;;14.02;;
58302;SDS011;44109;52.398;7.024;2022-11-20T02:51:46;24.75;;;13.95;;
58302;SDS011;44109;52.398;7.024;2022-11-20T02:54:13;26.25;;;14.05;;
58302;SDS011;44109;52.398;7.024;2022-11-20T02:56:42;24.30;;;13.70;;
58302;SDS011;44109;52.398;7.024;2022-11-20T02:59:10;28.77;;;15.35;;
58302;SDS011;44109;52.398;7.024;2022-11-20T03:01:37;23.08;;;14.18;;
58302;SDS011;44109;52.398;7.024;2022-11-20T03:04:05;25.85;;;15.35;;
58302;SDS011;44109;52.398;7.024;2022-11-20T03:06:32;23.58;;;13.55;;
58302;SDS011;44109;52.398;7.024;2022-11-20T03:09:00;24.95;;;14.18;;
58302;SDS011;44109;52.398;7.024;2022-11-20T03:11:28;25.75;;;14.27;;
58302;SDS011;44109;52.398;7.024;2022-11-20T03:13:57;23.50;;;12.90;;
58302;SDS011;44109;52.398;7.024;2022-11-20T03:16:28;22.85;;;12.98;;
58302;SDS011;44109;52.398;7.024;2022-11-20T03:18:55;26.85;;;15.35;;
58302;SDS011;44109;52.398;7.024;2022-11-20T03:21:23;21.58;;;13.35;;
58302;SDS011;44109;52.398;7.024;2022-11-20T03:23:50;26.17;;;14.18;;
58302;SDS011;44109;52.398;7.024;2022-11-20T03:26:20;28.00;;;15.95;;
58302;SDS011;44109;52.398;7.024;2022-11-20T03:28:50;24.58;;;13.43;;
58302;SDS011;44109;52.398;7.024;2022-11-20T03:31:21;25.45;;;14.88;;
58302;SDS011;44109;52.398;7.024;2022-11-20T03:33:50;24.83;;;13.43;;
58302;SDS011;44109;52.398;7.024;2022-11-20T03:36:19;29.38;;;15.65;;
58302;SDS011;44109;52.398;7.024;2022-11-20T03:38:48;26.45;;;14.88;;
58302;SDS011;44109;52.398;7.024;2022-11-20T03:41:17;25.77;;;14.20;;
58302;SDS011;44109;52.398;7.024;2022-11-20T03:43:47;26.00;;;15.20;;
58302;SDS011;44109;52.398;7.024;2022-11-20T03:46:15;25.88;;;14.80;;
58302;SDS011;44109;52.398;7.024;2022-11-20T03:48:45;26.70;;;14.60;;
58302;SDS011;44109;52.398;7.024;2022-11-20T03:51:14;26.20;;;14.98;;
58302;SDS011;44109;52.398;7.024;2022-11-20T03:53:45;23.90;;;14.43;;
58302;SDS011;44109;52.398;7.024;2022-11-20T03:56:15;23.10;;;14.13;;
58302;SDS011;44109;52.398;7.024;2022-11-20T03:58:45;28.20;;;14.65;;
58302;SDS011;44109;52.398;7.024;2022-11-20T04:01:13;22.85;;;14.52;;
58302;SDS011;44109;52.398;7.024;2022-11-20T04:03:44;26.05;;;15.13;;
58302;SDS011;44109;52.398;7.024;2022-11-20T04:06:13;29.23;;;15.07;;
58302;SDS011;44109;52.398;7.024;2022-11-20T04:08:43;26.63;;;15.00;;
58302;SDS011;44109;52.398;7.024;2022-11-20T04:11:11;23.45;;;14.20;;
58302;SDS011;44109;52.398;7.024;2022-11-20T04:13:42;27.88;;;14.88;;
58302;SDS011;44109;52.398;7.024;2022-11-20T04:16:15;30.85;;;17.40;;
58302;SDS011;44109;52.398;7.024;2022-11-20T04:18:45;27.25;;;14.55;;
58302;SDS011;44109;52.398;7.024;2022-11-20T04:21:13;29.77;;;15.30;;
58302;SDS011;44109;52.398;7.024;2022-11-20T04:23:40;29.23;;;14.73;;
58302;SDS011;44109;52.398;7.024;2022-11-20T04:26:09;25.92;;;14.65;;
58302;SDS011;44109;52.398;7.024;2022-11-20T04:28:38;28.05;;;14.77;;
58302;SDS011;44109;52.398;7.024;2022-11-20T04:31:07;25.10;;;14.13;;
58302;SDS011;44109;52.398;7.024;2022-11-20T04:33:36;26.35;;;14.05;;
58302;SDS011;44109;52.398;7.024;2022-11-20T04:36:07;28.52;;;15.48;;
58302;SDS011;44109;52.398;7.024;2022-11-20T04:38:38;23.08;;;13.55;;
58302;SDS011;44109;52.398;7.024;2022-11-20T04:41:07;23.30;;;13.82;;
58302;SDS011;44109;52.398;7.024;2022-11-20T04:43:41;22.08;;;13.23;;
58302;SDS011;44109;52.398;7.024;2022-11-20T04:46:12;26.10;;;13.68;;
58302;SDS011;44109;52.398;7.024;2022-11-20T04:48:40;26.45;;;14.48;;
58302;SDS011;44109;52.398;7.024;2022-11-20T04:51:09;25.83;;;14.20;;
58302;SDS011;44109;52.398;7.024;2022-11-20T04:53:36;23.00;;;14.02;;
58302;SDS011;44109;52.398;7.024;2022-11-20T04:56:05;22.90;;;12.55;;
58302;SDS011;44109;52.398;7.024;2022-11-20T04:58:36;22.05;;;14.55;;
58302;SDS011;44109;52.398;7.024;2022-11-20T05:01:05;20.40;;;13.48;;
58302;SDS011;44109;52.398;7.024;2022-11-20T05:03:36;21.83;;;13.45;;
58302;SDS011;44109;52.398;7.024;2022-11-20T05:06:04;21.02;;;13.70;;
58302;SDS011;44109;52.398;7.024;2022-11-20T05:08:35;22.92;;;11.70;;
58302;SDS011;44109;52.398;7.024;2022-11-20T05:11:03;21.15;;;12.57;;
58302;SDS011;44109;52.398;7.024;2022-11-20T05:13:33;21.98;;;12.27;;
58302;SDS011;44109;52.398;7.024;2022-11-20T05:16:02;21.95;;;12.45;;
58302;SDS011;44109;52.398;7.024;2022-11-20T05:18:30;23.13;;;12.75;;
58302;SDS011;44109;52.398;7.024;2022-11-20T05:20:58;22.90;;;13.10;;
58302;SDS011;44109;52.398;7.024;2022-11-20T05:23:26;21.15;;;11.93;;
58302;SDS011;44109;52.398;7.024;2022-11-20T05:25:57;20.88;;;11.95;;
58302;SDS011;44109;52.398;7.024;2022-11-20T05:28:26;19.98;;;11.82;;
58302;SDS011;44109;52.398;7.024;2022-11-20T05:30:55;21.90;;;12.10;;
58302;SDS011;44109;52.398;7.024;2022-11-20T05:33:31;20.27;;;12.45;;
58302;SDS011;44109;52.398;7.024;2022-11-20T05:36:00;23.73;;;12.65;;
58302;SDS011;44109;52.398;7.024;2022-11-20T05:38:27;23.08;;;11.95;;
58302;SDS011;44109;52.398;7.024;2022-11-20T05:40:56;19.38;;;11.48;;
58302;SDS011;44109;52.398;7.024;2022-11-20T05:43:31;18.83;;;11.07;;
58302;SDS011;44109;52.398;7.024;2022-11-20T05:46:00;16.63;;;10.57;;
58302;SDS011;44109;52.398;7.024;2022-11-20T05:48:29;19.48;;;11.13;;
58302;SDS011;44109;52.398;7.024;2022-11-20T05:50:57;18.45;;;10.65;;
58302;SDS011;44109;52.398;7.024;2022-11-20T05:53:25;19.70;;;10.82;;
58302;SDS011;44109;52.398;7.024;2022-11-20T05:55:57;21.58;;;10.50;;
58302;SDS011;44109;52.398;7.024;2022-11-20T05:58:26;17.48;;;8.75;;
58302;SDS011;44109;52.398;7.024;2022-11-20T06:00:54;17.83;;;11.05;;
58302;SDS011;44109;52.398;7.024;2022-11-20T06:03:30;16.67;;;9.60;;
58302;SDS011;44109;52.398;7.024;2022-11-20T06:05:58;17.90;;;9.73;;
58302;SDS011;44109;52.398;7.024;2022-11-20T06:08:26;18.08;;;9.95;;
58302;SDS011;44109;52.398;7.024;2022-11-20T06:10:53;14.90;;;9.85;;
58302;SDS011;44109;52.398;7.024;2022-11-20T06:13:22;16.95;;;9.55;;
58302;SDS011;44109;52.398;7.024;2022-11-20T06:15:50;21.55;;;10.95;;
58302;SDS011;44109;52.398;7.024;2022-11-20T06:18:19;19.77;;;10.93;;
58302;SDS011;44109;52.398;7.024;2022-11-20T06:20:46;20.83;;;10.52;;
58302;SDS011;44109;52.398;7.024;2022-11-20T06:23:14;17.23;;;9.63;;
58302;SDS011;44109;52.398;7.024;2022-11-20T06:25:42;18.58;;;9.65;;
58302;SDS011;44109;52.398;7.024;2022-11-20T06:28:10;18.17;;;9.90;;
58302;SDS011;44109;52.398;7.024;2022-11-20T06:30:44;19.40;;;10.45;;
58302;SDS011;44109;52.398;7.024;2022-11-20T06:33:12;20.23;;;10.80;;
58302;SDS011;44109;52.398;7.024;2022-11-20T06:35:39;19.75;;;10.60;;
58302;SDS011;44109;52.398;7.024;2022-11-20T06:38:07;14.15;;;8.75;;
58302;SDS011;44109;52.398;7.024;2022-11-20T06:40:34;16.10;;;9.75;;
58302;SDS011;44109;52.398;7.024;2022-11-20T06:43:02;19.30;;;9.85;;
58302;SDS011;44109;52.398;7.024;2022-11-20T06:45:29;20.45;;;10.43;;
58302;SDS011;44109;52.398;7.024;2022-11-20T06:47:58;20.60;;;11.18;;
58302;SDS011;44109;52.398;7.024;2022-11-20T06:50:26;15.35;;;9.40;;
58302;SDS011;44109;52.398;7.024;2022-11-20T06:52:53;19.20;;;10.60;;
58302;SDS011;44109;52.398;7.024;2022-11-20T06:55:21;18.08;;;10.02;;
58302;SDS011;44109;52.398;7.024;2022-11-20T06:57:50;22.13;;;10.57;;
58302;SDS011;44109;52.398;7.024;2022-11-20T07:00:17;19.38;;;10.57;;
58302;SDS011;44109;52.398;7.024;2022-11-20T07:02:45;16.88;;;9.95;;
58302;SDS011;44109;52.398;7.024;2022-11-20T07:05:14;19.20;;;10.10;;
58302;SDS011;44109;52.398;7.024;2022-11-20T07:07:42;16.33;;;10.90;;
58302;SDS011;44109;52.398;7.024;2022-11-20T07:10:09;21.38;;;10.98;;
58302;SDS011;44109;52.398;7.024;2022-11-20T07:12:37;19.33;;;10.93;;
58302;SDS011;44109;52.398;7.024;2022-11-20T07:15:05;20.60;;;11.43;;
58302;SDS011;44109;52.398;7.024;2022-11-20T07:17:34;19.48;;;10.75;;
58302;SDS011;44109;52.398;7.024;2022-11-20T07:20:01;21.80;;;12.05;;
58302;SDS011;44109;52.398;7.024;2022-11-20T07:22:30;15.60;;;9.90;;
58302;SDS011;44109;52.398;7.024;2022-11-20T07:24:58;20.52;;;13.20;;
58302;SDS011;44109;52.398;7.024;2022-11-20T07:27:26;19.48;;;10.70;;
58302;SDS011;44109;52.398;7.024;2022-11-20T07:29:54;20.38;;;11.02;;
58302;SDS011;44109;52.398;7.024;2022-11-20T07:32:21;16.00;;;10.32;;
58302;SDS011;44109;52.398;7.024;2022-11-20T07:34:50;18.02;;;10.13;;
58302;SDS011;44109;52.398;7.024;2022-11-20T07:37:17;16.90;;;10.55;;
58302;SDS011;44109;52.398;7.024;2022-11-20T07:39:46;16.17;;;10.30;;
58302;SDS011;44109;52.398;7.024;2022-11-20T07:42:14;20.60;;;10.63;;
58302;SDS011;44109;52.398;7.024;2022-11-20T07:44:42;16.70;;;10.45;;
58302;SDS011;44109;52.398;7.024;2022-11-20T07:47:09;22.10;;;11.52;;
58302;SDS011;44109;52.398;7.024;2022-11-20T07:49:37;18.00;;;10.35;;
58302;SDS011;44109;52.398;7.024;2022-11-20T07:52:04;17.20;;;10.50;;
58302;SDS011;44109;52.398;7.024;2022-11-20T07:54:32;19.23;;;11.48;;
58302;SDS011;44109;52.398;7.024;2022-11-20T07:57:01;17.23;;;9.85;;
58302;SDS011;44109;52.398;7.024;2022-11-20T07:59:28;16.02;;;9.57;;
58302;SDS011;44109;52.398;7.024;2022-11-20T08:01:56;20.02;;;11.32;;
58302;SDS011;44109;52.398;7.024;2022-11-20T08:04:23;18.73;;;11.57;;
58302;SDS011;44109;52.398;7.024;2022-11-20T08:06:51;20.08;;;11.45;;
58302;SDS011;44109;52.398;7.024;2022-11-20T08:09:19;19.00;;;10.98;;
58302;SDS011;44109;52.398;7.024;2022-11-20T08:11:47;16.05;;;10.50;;
58302;SDS011;44109;52.398;7.024;2022-11-20T08:14:33;16.70;;;10.90;;
58302;SDS011;44109;52.398;7.024;2022-11-20T08:17:00;19.50;;;11.68;;
58302;SDS011;44109;52.398;7.024;2022-11-20T08:19:28;21.20;;;12.07;;
58302;SDS011;44109;52.398;7.024;2022-11-20T08:21:55;20.17;;;12.15;;
58302;SDS011;44109;52.398;7.024;2022-11-20T08:24:23;20.88;;;12.00;;
58302;SDS011;44109;52.398;7.024;2022-11-20T08:26:52;21.27;;;12.55;;
58302;SDS011;44109;52.398;7.024;2022-11-20T08:29:19;21.30;;;12.60;;
58302;SDS011;44109;52.398;7.024;2022-11-20T08:31:48;20.90;;;12.10;;
58302;SDS011;44109;52.398;7.024;2022-11-20T08:34:16;18.88;;;11.48;;
58302;SDS011;44109;52.398;7.024;2022-11-20T08:36:43;20.73;;;11.95;;
58302;SDS011;44109;52.398;7.024;2022-11-20T08:39:11;22.33;;;13.35;;
58302;SDS011;44109;52.398;7.024;2022-11-20T08:41:40;24.10;;;12.43;;
58302;SDS011;44109;52.398;7.024;2022-11-20T08:44:07;19.90;;;12.73;;
58302;SDS011;44109;52.398;7.024;2022-11-20T08:46:35;20.50;;;11.70;;
58302;SDS011;44109;52.398;7.024;2022-11-20T08:49:07;21.98;;;12.23;;
58302;SDS011;44109;52.398;7.024;2022-11-20T08:51:37;19.38;;;12.13;;
58302;SDS011;44109;52.398;7.024;2022-11-20T08:54:06;19.52;;;11.80;;
58302;SDS011;44109;52.398;7.024;2022-11-20T08:56:34;19.58;;;12.23;;
58302;SDS011;44109;52.398;7.024;2022-11-20T08:59:02;22.50;;;13.43;;
58302;SDS011;44109;52.398;7.024;2022-11-20T09:01:30;20.10;;;13.10;;
58302;SDS011;44109;52.398;7.024;2022-11-20T09:03:57;22.17;;;12.25;;
58302;SDS011;44109;52.398;7.024;2022-11-20T09:06:27;18.80;;;11.07;;
58302;SDS011;44109;52.398;7.024;2022-11-20T09:08:54;23.23;;;12.82;;
58302;SDS011;44109;52.398;7.024;2022-11-20T09:11:22;20.80;;;12.02;;
58302;SDS011;44109;52.398;7.024;2022-11-20T09:13:50;19.77;;;12.35;;
58302;SDS011;44109;52.398;7.024;2022-11-20T09:16:18;18.45;;;12.52;;
58302;SDS011;44109;52.398;7.024;2022-11-20T09:18:45;19.60;;;12.15;;
58302;SDS011;44109;52.398;7.024;2022-11-20T09:21:13;24.17;;;13.43;;
58302;SDS011;44109;52.398;7.024;2022-11-20T09:23:42;20.23;;;11.45;;
58302;SDS011;44109;52.398;7.024;2022-11-20T09:26:11;20.58;;;11.18;;
58302;SDS011;44109;52.398;7.024;2022-11-20T09:28:41;18.92;;;11.35;;
58302;SDS011;44109;52.398;7.024;2022-11-20T09:31:09;19.52;;;12.23;;
58302;SDS011;44109;52.398;7.024;2022-11-20T09:33:46;20.63;;;12.02;;
58302;SDS011;44109;52.398;7.024;2022-11-20T09:36:14;21.42;;;11.70;;
58302;SDS011;44109;52.398;7.024;2022-11-20T09:38:45;21.98;;;12.50;;
58302;SDS011;44109;52.398;7.024;2022-11-20T09:41:19;21.33;;;13.05;;
58302;SDS011;44109;52.398;7.024;2022-11-20T09:44:15;21.38;;;11.32;;
58302;SDS011;44109;52.398;7.024;2022-11-20T09:47:02;19.67;;;12.35;;
58302;SDS011;44109;52.398;7.024;2022-11-20T09:49:49;24.45;;;14.15;;
58302;SDS011;44109;52.398;7.024;2022-11-20T09:52:38;24.67;;;13.13;;
58302;SDS011;44109;52.398;7.024;2022-11-20T09:55:31;18.95;;;11.73;;
58302;SDS011;44109;52.398;7.024;2022-11-20T09:58:04;24.45;;;13.07;;
58302;SDS011;44109;52.398;7.024;2022-11-20T10:00:37;23.05;;;13.25;;
58302;SDS011;44109;52.398;7.024;2022-11-20T10:03:06;20.33;;;13.57;;
58302;SDS011;44109;52.398;7.024;2022-11-20T10:05:44;25.45;;;13.10;;
58302;SDS011;44109;52.398;7.024;2022-11-20T10:08:17;20.52;;;13.00;;
58302;SDS011;44109;52.398;7.024;2022-11-20T10:10:52;22.55;;;13.45;;
58302;SDS011;44109;52.398;7.024;2022-11-20T10:13:34;21.73;;;13.25;;
58302;SDS011;44109;52.398;7.024;2022-11-20T10:16:18;23.05;;;14.05;;
58302;SDS011;44109;52.398;7.024;2022-11-20T10:19:01;20.55;;;13.18;;
58302;SDS011;44109;52.398;7.024;2022-11-20T10:21:51;21.85;;;14.93;;
58302;SDS011;44109;52.398;7.024;2022-11-20T10:24:37;22.98;;;13.45;;
58302;SDS011;44109;52.398;7.024;2022-11-20T10:27:21;26.73;;;15.02;;
58302;SDS011;44109;52.398;7.024;2022-11-20T10:30:16;23.33;;;13.48;;
58302;SDS011;44109;52.398;7.024;2022-11-20T10:32:48;20.48;;;12.80;;
58302;SDS011;44109;52.398;7.024;2022-11-20T10:35:21;22.75;;;13.90;;
58302;SDS011;44109;52.398;7.024;2022-11-20T10:37:56;23.75;;;13.90;;
58302;SDS011;44109;52.398;7.024;2022-11-20T10:40:29;23.25;;;13.93;;
58302;SDS011;44109;52.398;7.024;2022-11-20T10:43:07;24.35;;;14.93;;
58302;SDS011;44109;52.398;7.024;2022-11-20T10:45:44;26.38;;;15.27;;
58302;SDS011;44109;52.398;7.024;2022-11-20T10:48:21;26.67;;;15.30;;
58302;SDS011;44109;52.398;7.024;2022-11-20T10:53:58;26.08;;;15.20;;
58302;SDS011;44109;52.398;7.024;2022-11-20T10:56:48;23.95;;;14.20;;
58302;SDS011;44109;52.398;7.024;2022-11-20T10:59:41;24.05;;;14.63;;
58302;SDS011;44109;52.398;7.024;2022-11-20T11:02:31;26.63;;;15.18;;
58302;SDS011;44109;52.398;7.024;2022-11-20T11:05:10;24.08;;;14.30;;
58302;SDS011;44109;52.398;7.024;2022-11-20T11:07:55;23.98;;;14.20;;
58302;SDS011;44109;52.398;7.024;2022-11-20T11:10:27;27.70;;;15.35;;
58302;SDS011;44109;52.398;7.024;2022-11-20T11:13:03;24.90;;;15.82;;
58302;SDS011;44109;52.398;7.024;2022-11-20T11:15:37;22.17;;;13.18;;
58302;SDS011;44109;52.398;7.024;2022-11-20T11:18:08;22.65;;;14.10;;
58302;SDS011;44109;52.398;7.024;2022-11-20T11:25:42;20.45;;;12.68;;
58302;SDS011;44109;52.398;7.024;2022-11-20T11:28:26;23.65;;;14.73;;
58302;SDS011;44109;52.398;7.024;2022-11-20T11:30:56;23.92;;;12.82;;
58302;SDS011;44109;52.398;7.024;2022-11-20T11:33:24;20.67;;;12.52;;
58302;SDS011;44109;52.398;7.024;2022-11-20T11:35:54;20.42;;;11.88;;
58302;SDS011;44109;52.398;7.024;2022-11-20T11:38:28;22.88;;;14.50;;
58302;SDS011;44109;52.398;7.024;2022-11-20T11:41:01;19.30;;;13.13;;
58302;SDS011;44109;52.398;7.024;2022-11-20T11:43:32;21.65;;;13.27;;
58302;SDS011;44109;52.398;7.024;2022-11-20T11:46:26;18.95;;;12.25;;
58302;SDS011;44109;52.398;7.024;2022-11-20T11:48:59;20.67;;;13.13;;
58302;SDS011;44109;52.398;7.024;2022-11-20T11:51:30;17.75;;;10.80;;
58302;SDS011;44109;52.398;7.024;2022-11-20T11:54:10;16.35;;;10.65;;
58302;SDS011;44109;52.398;7.024;2022-11-20T11:56:48;14.43;;;8.48;;
58302;SDS011;44109;52.398;7.024;2022-11-20T11:59:22;12.77;;;8.43;;
58302;SDS011;44109;52.398;7.024;2022-11-20T12:02:02;11.55;;;7.35;;
58302;SDS011;44109;52.398;7.024;2022-11-20T12:04:46;13.27;;;8.88;;
58302;SDS011;44109;52.398;7.024;2022-11-20T12:07:27;12.55;;;7.57;;
58302;SDS011;44109;52.398;7.024;2022-11-20T12:10:13;12.60;;;7.82;;
58302;SDS011;44109;52.398;7.024;2022-11-20T12:12:50;11.50;;;8.38;;
58302;SDS011;44109;52.398;7.024;2022-11-20T12:15:27;12.00;;;7.22;;
58302;SDS011;44109;52.398;7.024;2022-11-20T12:18:00;13.15;;;7.53;;
58302;SDS011;44109;52.398;7.024;2022-11-20T12:20:29;11.25;;;7.78;;
58302;SDS011;44109;52.398;7.024;2022-11-20T12:23:09;12.40;;;8.10;;
58302;SDS011;44109;52.398;7.024;2022-11-20T12:25:48;10.63;;;6.95;;
58302;SDS011;44109;52.398;7.024;2022-11-20T12:28:31;10.25;;;7.82;;
58302;SDS011;44109;52.398;7.024;2022-11-20T12:31:24;11.68;;;7.65;;
58302;SDS011;44109;52.398;7.024;2022-11-20T12:34:34;12.35;;;7.63;;
58302;SDS011;44109;52.398;7.024;2022-11-20T12:37:28;12.90;;;7.10;;
58302;SDS011;44109;52.398;7.024;2022-11-20T12:40:17;11.98;;;7.78;;
58302;SDS011;44109;52.398;7.024;2022-11-20T12:42:58;9.13;;;6.03;;
58302;SDS011;44109;52.398;7.024;2022-11-20T12:46:08;13.25;;;7.57;;
58302;SDS011;44109;52.398;7.024;2022-11-20T12:52:00;11.95;;;7.65;;
58302;SDS011;44109;52.398;7.024;2022-11-20T12:54:54;11.75;;;7.68;;
58302;SDS011;44109;52.398;7.024;2022-11-20T12:57:42;12.23;;;8.38;;
58302;SDS011;44109;52.398;7.024;2022-11-20T13:00:21;11.93;;;7.60;;
58302;SDS011;44109;52.398;7.024;2022-11-20T13:03:00;12.23;;;7.88;;
58302;SDS011;44109;52.398;7.024;2022-11-20T13:05:51;15.05;;;8.70;;
58302;SDS011;44109;52.398;7.024;2022-11-20T13:08:32;13.93;;;8.48;;
58302;SDS011;44109;52.398;7.024;2022-11-20T13:11:04;14.15;;;8.85;;
58302;SDS011;44109;52.398;7.024;2022-11-20T13:13:47;14.23;;;8.82;;
58302;SDS011;44109;52.398;7.024;2022-11-20T13:16:44;12.02;;;8.80;;
58302;SDS011;44109;52.398;7.024;2022-11-20T13:19:19;13.10;;;9.00;;
58302;SDS011;44109;52.398;7.024;2022-11-20T13:21:48;13.85;;;9.25;;
58302;SDS011;44109;52.398;7.024;2022-11-20T13:24:22;14.30;;;9.02;;
58302;SDS011;44109;52.398;7.024;2022-11-20T13:26:59;12.27;;;8.68;;
58302;SDS011;44109;52.398;7.024;2022-11-20T13:29:30;16.60;;;9.88;;
58302;SDS011;44109;52.398;7.024;2022-11-20T13:32:03;12.90;;;8.18;;
58302;SDS011;44109;52.398;7.024;2022-11-20T13:34:34;13.35;;;8.98;;
58302;SDS011;44109;52.398;7.024;2022-11-20T13:37:02;12.65;;;8.95;;
58302;SDS011;44109;52.398;7.024;2022-11-20T13:39:32;13.48;;;9.13;;
58302;SDS011;44109;52.398;7.024;2022-11-20T13:42:02;13.15;;;9.32;;
58302;SDS011;44109;52.398;7.024;2022-11-20T13:44:54;13.30;;;8.95;;
58302;SDS011;44109;52.398;7.024;2022-11-20T13:47:28;14.25;;;9.20;;
58302;SDS011;44109;52.398;7.024;2022-11-20T13:49:58;13.88;;;9.63;;
58302;SDS011;44109;52.398;7.024;2022-11-20T13:52:37;14.43;;;9.55;;
58302;SDS011;44109;52.398;7.024;2022-11-20T13:55:20;16.15;;;10.10;;
58302;SDS011;44109;52.398;7.024;2022-11-20T14:01:00;15.55;;;9.35;;
58302;SDS011;44109;52.398;7.024;2022-11-20T14:03:36;13.70;;;9.10;;
58302;SDS011;44109;52.398;7.024;2022-11-20T14:06:10;15.45;;;10.05;;
58302;SDS011;44109;52.398;7.024;2022-11-20T14:08:48;12.65;;;8.10;;
58302;SDS011;44109;52.398;7.024;2022-11-20T14:11:18;12.50;;;8.77;;
58302;SDS011;44109;52.398;7.024;2022-11-20T14:13:55;16.50;;;10.88;;
58302;SDS011;44109;52.398;7.024;2022-11-20T14:16:27;16.55;;;10.05;;
58302;SDS011;44109;52.398;7.024;2022-11-20T14:18:57;12.30;;;8.57;;
58302;SDS011;44109;52.398;7.024;2022-11-20T14:21:52;14.40;;;9.23;;
58302;SDS011;44109;52.398;7.024;2022-11-20T14:24:22;12.32;;;7.22;;
58302;SDS011;44109;52.398;7.024;2022-11-20T14:26:53;12.98;;;8.50;;
58302;SDS011;44109;52.398;7.024;2022-11-20T14:29:22;14.43;;;8.85;;
58302;SDS011;44109;52.398;7.024;2022-11-20T14:31:56;15.10;;;8.98;;
58302;SDS011;44109;52.398;7.024;2022-11-20T14:34:25;14.07;;;8.85;;
58302;SDS011;44109;52.398;7.024;2022-11-20T14:36:57;12.65;;;8.10;;
58302;SDS011;44109;52.398;7.024;2022-11-20T14:39:29;15.25;;;8.95;;
58302;SDS011;44109;52.398;7.024;2022-11-20T14:42:02;13.30;;;8.27;;
58302;SDS011;44109;52.398;7.024;2022-11-20T14:44:43;13.07;;;7.95;;
58302;SDS011;44109;52.398;7.024;2022-11-20T14:47:12;15.10;;;9.52;;
58302;SDS011;44109;52.398;7.024;2022-11-20T14:49:45;15.43;;;10.02;;
58302;SDS011;44109;52.398;7.024;2022-11-20T14:52:15;16.73;;;9.68;;
58302;SDS011;44109;52.398;7.024;2022-11-20T14:54:45;16.42;;;9.90;;
58302;SDS011;44109;52.398;7.024;2022-11-20T14:57:23;16.95;;;10.43;;
58302;SDS011;44109;52.398;7.024;2022-11-20T15:00:04;20.02;;;10.20;;
58302;SDS011;44109;52.398;7.024;2022-11-20T15:02:38;15.38;;;9.85;;
58302;SDS011;44109;52.398;7.024;2022-11-20T15:05:08;20.92;;;12.57;;
58302;SDS011;44109;52.398;7.024;2022-11-20T15:07:36;16.95;;;11.07;;